Time;durP1;ratioP1;P1;durP2;ratioP2;P2;SDS_P1;SDS_P2;PMS_P1;PMS_P2;Temp;Humidity;BMP_temperature;BMP_pressure;BME280_temperature;BME280_humidity;BME280_pressure;Samples;Min_cycle;Max_cycle;Signal;HPM_P1;HPM_P2
2023/09/17 00:01:12;;;;;;;5.97;4.27;;;15.10;99.90;;;;;;5065169;28;20549;-79
2023/09/17 00:03:39;;;;;;;3.97;3.67;;;15.10;99.90;;;;;;5065437;28;20942;-79
2023/09/17 00:06:08;;;;;;;6.70;3.90;;;15.10;99.90;;;;;;5063069;28;20467;-80
2023/09/17 00:08:35;;;;;;;5.53;5.03;;;15.00;99.90;;;;;;5060143;28;20451;-79
2023/09/17 00:11:04;;;;;;;4.53;4.20;;;15.00;99.90;;;;;;5058071;28;20542;-79
2023/09/17 00:13:30;;;;;;;8.53;4.97;;;15.00;99.90;;;;;;5064364;28;20570;-79
2023/09/17 00:15:58;;;;;;;6.03;4.57;;;14.90;99.90;;;;;;5057107;28;20456;-80
2023/09/17 00:18:25;;;;;;;5.17;4.77;;;14.90;99.90;;;;;;5057568;28;20448;-79
2023/09/17 00:20:52;;;;;;;5.53;5.03;;;14.90;99.90;;;;;;5055906;28;20471;-80
2023/09/17 00:23:19;;;;;;;5.93;4.33;;;14.80;99.90;;;;;;5065410;28;20450;-79
2023/09/17 00:25:46;;;;;;;5.70;4.77;;;14.60;99.90;;;;;;5064516;28;20454;-78
2023/09/17 00:28:14;;;;;;;7.43;4.80;;;14.60;99.90;;;;;;5063035;28;20641;-79
2023/09/17 00:30:41;;;;;;;5.10;4.70;;;14.70;99.90;;;;;;5066605;28;20520;-79
2023/09/17 00:33:08;;;;;;;5.60;3.83;;;14.60;99.90;;;;;;5061195;28;20480;-77
2023/09/17 00:35:35;;;;;;;6.27;5.67;;;14.70;99.90;;;;;;5066097;28;21183;-78
2023/09/17 00:38:03;;;;;;;6.67;5.13;;;14.70;99.90;;;;;;5062959;28;20508;-78
2023/09/17 00:40:31;;;;;;;5.00;4.60;;;14.70;99.90;;;;;;5061651;28;20953;-78
2023/09/17 00:42:58;;;;;;;5.50;5.00;;;14.70;99.90;;;;;;5068182;28;20454;-79
2023/09/17 00:45:27;;;;;;;3.73;3.43;;;14.60;99.90;;;;;;5063142;28;20452;-78
2023/09/17 00:47:55;;;;;;;5.03;4.60;;;14.60;99.90;;;;;;5065982;28;20459;-78
2023/09/17 00:50:22;;;;;;;4.40;3.30;;;14.50;99.90;;;;;;5064826;28;20491;-78
2023/09/17 00:52:50;;;;;;;4.27;3.97;;;14.60;99.90;;;;;;5068026;28;20495;-79
2023/09/17 00:55:17;;;;;;;5.37;4.20;;;14.60;99.90;;;;;;5064598;28;20500;-77
2023/09/17 00:57:46;;;;;;;4.37;3.97;;;14.50;99.90;;;;;;5065053;28;21012;-78
2023/09/17 01:00:14;;;;;;;4.87;4.33;;;14.50;99.90;;;;;;5062228;28;21044;-78
2023/09/17 01:02:43;;;;;;;4.70;4.30;;;14.50;99.90;;;;;;5063265;28;20572;-80
2023/09/17 01:05:11;;;;;;;4.20;3.53;;;14.40;99.90;;;;;;5051086;28;20974;-78
2023/09/17 01:07:38;;;;;;;4.43;4.03;;;14.40;99.90;;;;;;5065959;28;20521;-78
2023/09/17 01:10:06;;;;;;;5.47;4.97;;;14.40;99.90;;;;;;5059163;28;20526;-79
2023/09/17 01:12:33;;;;;;;5.17;4.70;;;14.30;99.90;;;;;;5056990;28;20547;-78
2023/09/17 01:15:03;;;;;;;3.60;3.33;;;14.30;99.90;;;;;;5055972;28;20512;-81
2023/09/17 01:17:34;;;;;;;5.70;4.40;;;14.20;99.90;;;;;;5065904;28;20488;-79
2023/09/17 01:20:22;;;;;;;5.43;5.00;;;14.20;99.90;;;;;;5068663;28;21041;-79
2023/09/17 01:23:00;;;;;;;3.80;3.50;;;14.10;99.90;;;;;;5062840;28;20459;-79
2023/09/17 01:25:42;;;;;;;4.60;4.20;;;14.20;99.90;;;;;;5073165;28;20469;-79
2023/09/17 01:28:15;;;;;;;4.60;4.20;;;14.30;99.90;;;;;;5068685;28;20444;-79
2023/09/17 01:30:45;;;;;;;5.30;4.83;;;14.20;99.90;;;;;;5062392;28;20468;-78
2023/09/17 01:33:12;;;;;;;6.00;3.63;;;14.10;99.90;;;;;;5065302;28;21000;-80
2023/09/17 01:35:47;;;;;;;4.00;3.70;;;14.20;99.90;;;;;;5059282;28;21094;-80
2023/09/17 01:38:19;;;;;;;3.87;3.60;;;14.20;99.90;;;;;;5064081;28;20443;-80
2023/09/17 01:40:49;;;;;;;5.33;3.30;;;14.30;99.90;;;;;;5054788;28;20466;-78
2023/09/17 01:43:19;;;;;;;4.20;3.90;;;14.40;99.90;;;;;;5067649;28;20439;-77
2023/09/17 01:45:47;;;;;;;4.93;4.43;;;14.40;99.90;;;;;;5063659;28;20461;-80
2023/09/17 01:48:16;;;;;;;3.57;3.27;;;14.30;99.90;;;;;;5062995;28;20515;-75
2023/09/17 01:50:45;;;;;;;5.83;3.97;;;14.30;99.90;;;;;;5068443;28;20545;-77
2023/09/17 01:53:12;;;;;;;4.10;3.80;;;14.20;99.90;;;;;;5070010;28;20568;-77
2023/09/17 01:55:42;;;;;;;5.47;3.50;;;14.30;99.90;;;;;;5061918;28;20438;-78
2023/09/17 01:58:10;;;;;;;4.40;4.00;;;14.10;99.90;;;;;;5060351;28;20446;-77
2023/09/17 02:00:39;;;;;;;6.40;3.80;;;14.00;99.90;;;;;;5065966;28;20445;-76
2023/09/17 02:03:08;;;;;;;3.53;3.23;;;14.00;99.90;;;;;;5060493;28;20494;-76
2023/09/17 02:05:35;;;;;;;4.70;4.23;;;13.90;99.90;;;;;;5072845;28;20466;-76
2023/09/17 02:08:03;;;;;;;3.23;2.93;;;13.90;99.90;;;;;;5063756;28;20526;-75
2023/09/17 02:10:30;;;;;;;2.80;2.60;;;13.90;99.90;;;;;;5067385;28;21150;-77
2023/09/17 02:12:57;;;;;;;4.83;4.30;;;13.80;99.90;;;;;;5061753;28;20482;-75
2023/09/17 02:15:24;;;;;;;5.63;3.40;;;13.70;99.90;;;;;;5068691;28;21226;-76
2023/09/17 02:17:53;;;;;;;3.90;3.60;;;13.70;99.90;;;;;;5068867;28;20475;-76
2023/09/17 02:20:20;;;;;;;3.57;3.07;;;13.70;99.90;;;;;;5063457;28;20502;-78
2023/09/17 02:22:47;;;;;;;5.03;4.63;;;13.70;99.90;;;;;;5068386;28;20519;-76
2023/09/17 02:25:14;;;;;;;3.80;3.00;;;13.70;99.90;;;;;;5067903;28;20437;-76
2023/09/17 02:27:41;;;;;;;3.63;3.03;;;13.70;99.90;;;;;;5065710;28;20472;-76
2023/09/17 02:30:09;;;;;;;4.43;3.93;;;13.60;99.90;;;;;;5066111;28;20449;-77
2023/09/17 02:32:37;;;;;;;4.40;3.93;;;13.60;99.90;;;;;;5062147;28;20482;-76
2023/09/17 02:35:07;;;;;;;3.60;3.30;;;13.70;99.90;;;;;;5068204;28;20531;-77
2023/09/17 02:37:34;;;;;;;3.13;2.93;;;13.70;99.90;;;;;;5058495;28;20452;-78
2023/09/17 02:40:02;;;;;;;3.90;3.57;;;13.80;99.90;;;;;;5068346;28;20444;-75
2023/09/17 02:42:30;;;;;;;6.30;4.57;;;13.70;99.90;;;;;;5065485;28;20465;-76
2023/09/17 02:44:56;;;;;;;3.80;3.30;;;13.80;99.90;;;;;;5059629;28;20445;-77
2023/09/17 02:47:23;;;;;;;4.23;3.83;;;13.90;99.90;;;;;;5067358;28;20500;-76
2023/09/17 02:49:50;;;;;;;3.77;3.50;;;13.90;99.90;;;;;;5066140;28;20899;-75
2023/09/17 02:52:19;;;;;;;4.77;4.20;;;13.80;99.90;;;;;;5065171;28;20448;-76
2023/09/17 02:54:46;;;;;;;4.40;4.00;;;13.70;99.90;;;;;;5057876;28;20549;-78
2023/09/17 02:57:13;;;;;;;4.03;3.73;;;13.50;99.90;;;;;;5063246;28;20451;-76
2023/09/17 02:59:40;;;;;;;3.87;3.57;;;13.50;99.90;;;;;;5062085;28;20460;-77
2023/09/17 03:02:07;;;;;;;4.13;3.73;;;13.50;99.90;;;;;;5064975;28;20513;-77
2023/09/17 03:04:34;;;;;;;6.03;4.67;;;13.50;99.90;;;;;;5061723;28;20473;-76
2023/09/17 03:07:01;;;;;;;4.23;3.80;;;13.40;99.90;;;;;;5058817;28;20435;-77
2023/09/17 03:09:29;;;;;;;4.53;3.93;;;13.30;99.90;;;;;;5062035;28;20459;-76
2023/09/17 03:11:56;;;;;;;5.80;4.03;;;13.30;99.90;;;;;;5058519;28;20474;-77
2023/09/17 03:14:23;;;;;;;3.80;3.53;;;13.30;99.90;;;;;;5065522;28;20484;-77
2023/09/17 03:16:50;;;;;;;5.43;3.20;;;13.30;99.90;;;;;;5060696;28;20867;-77
2023/09/17 03:19:19;;;;;;;3.60;3.30;;;13.30;99.90;;;;;;5060973;28;20479;-78
2023/09/17 03:21:46;;;;;;;4.30;3.47;;;13.30;99.90;;;;;;5057591;28;20465;-77
2023/09/17 03:24:15;;;;;;;3.37;2.90;;;13.20;99.90;;;;;;5066255;28;20473;-79
2023/09/17 03:26:43;;;;;;;4.03;3.60;;;13.20;99.90;;;;;;5062452;28;20473;-77
2023/09/17 03:29:12;;;;;;;3.63;3.33;;;13.10;99.90;;;;;;5069860;28;20827;-77
2023/09/17 03:31:41;;;;;;;5.20;3.60;;;13.10;99.90;;;;;;5068935;28;20937;-76
2023/09/17 03:34:08;;;;;;;4.13;3.13;;;13.20;99.90;;;;;;5058757;28;20490;-77
2023/09/17 03:36:36;;;;;;;4.00;3.17;;;13.30;99.90;;;;;;5062999;28;20464;-77
2023/09/17 03:39:06;;;;;;;4.37;3.97;;;13.20;99.90;;;;;;5063043;28;20620;-78
2023/09/17 03:41:34;;;;;;;4.33;3.67;;;13.30;99.90;;;;;;5060563;28;20995;-77
2023/09/17 03:44:02;;;;;;;3.80;3.50;;;13.40;99.90;;;;;;5058685;28;20461;-76
2023/09/17 03:46:32;;;;;;;5.57;3.20;;;13.50;99.90;;;;;;5060305;28;20992;-77
2023/09/17 03:48:59;;;;;;;3.27;2.97;;;13.40;99.90;;;;;;5060482;28;20969;-77
2023/09/17 03:51:28;;;;;;;5.43;5.03;;;13.40;99.90;;;;;;5063091;28;20538;-78
2023/09/17 03:53:55;;;;;;;4.47;2.53;;;13.40;99.90;;;;;;5065002;28;20518;-77
2023/09/17 03:56:23;;;;;;;3.80;3.50;;;13.30;99.90;;;;;;5059802;28;20467;-77
2023/09/17 03:58:51;;;;;;;3.60;3.27;;;13.30;99.90;;;;;;5069438;28;20526;-76
2023/09/17 04:01:20;;;;;;;3.43;3.03;;;13.20;99.90;;;;;;5061238;28;20949;-77
2023/09/17 04:03:48;;;;;;;3.80;2.93;;;13.30;99.90;;;;;;5060037;28;21005;-77
2023/09/17 04:06:15;;;;;;;3.57;3.13;;;13.30;99.90;;;;;;5064983;28;20780;-76
2023/09/17 04:08:42;;;;;;;4.00;2.87;;;13.30;99.90;;;;;;5065154;28;20535;-77
2023/09/17 04:11:15;;;;;;;2.77;2.57;;;13.20;99.90;;;;;;5058294;28;20459;-77
2023/09/17 04:13:42;;;;;;;6.90;3.13;;;13.20;99.90;;;;;;5056201;28;21015;-80
2023/09/17 04:16:09;;;;;;;5.70;3.50;;;13.20;99.90;;;;;;5068824;28;20470;-79
2023/09/17 04:18:38;;;;;;;5.03;2.70;;;13.10;99.90;;;;;;5066799;28;20771;-79
2023/09/17 04:21:05;;;;;;;3.53;3.03;;;13.00;99.90;;;;;;5067334;28;20442;-80
2023/09/17 04:23:32;;;;;;;2.97;2.77;;;13.00;99.90;;;;;;5065493;28;20500;-79
2023/09/17 04:25:59;;;;;;;4.90;3.63;;;13.00;99.90;;;;;;5062310;28;20532;-78
2023/09/17 04:28:26;;;;;;;2.63;2.43;;;13.00;99.90;;;;;;5059132;28;20443;-79
2023/09/17 04:30:53;;;;;;;3.53;3.23;;;13.00;99.90;;;;;;5055135;28;20499;-79
2023/09/17 04:33:20;;;;;;;3.13;2.70;;;13.00;99.90;;;;;;5059370;28;20481;-77
2023/09/17 04:35:48;;;;;;;11.27;2.70;;;12.90;99.90;;;;;;5058447;28;20465;-81
2023/09/17 04:38:16;;;;;;;2.83;2.60;;;12.90;99.90;;;;;;5055614;28;20472;-79
2023/09/17 04:40:43;;;;;;;2.83;2.37;;;13.00;99.90;;;;;;5061622;28;20461;-79
2023/09/17 04:43:10;;;;;;;3.40;2.43;;;13.00;99.90;;;;;;5066483;28;20441;-79
2023/09/17 04:45:39;;;;;;;2.20;2.00;;;12.90;99.90;;;;;;5064134;28;20535;-79
2023/09/17 04:48:08;;;;;;;3.73;2.30;;;12.90;99.90;;;;;;5064921;28;20514;-80
2023/09/17 04:50:36;;;;;;;2.17;1.97;;;12.90;99.90;;;;;;5067377;28;20512;-79
2023/09/17 04:53:04;;;;;;;6.77;2.17;;;13.00;99.90;;;;;;5071036;28;20475;-81
2023/09/17 04:55:32;;;;;;;3.93;2.93;;;13.10;99.90;;;;;;5073780;28;20738;-78
2023/09/17 04:57:59;;;;;;;2.07;1.87;;;13.00;99.90;;;;;;5068343;28;20980;-80
2023/09/17 05:00:26;;;;;;;2.23;2.10;;;13.00;99.90;;;;;;5063830;28;20880;-77
2023/09/17 05:02:53;;;;;;;2.70;2.40;;;13.00;99.90;;;;;;5059208;28;20464;-78
2023/09/17 05:05:20;;;;;;;3.10;2.80;;;13.20;99.90;;;;;;5059825;28;20472;-81
2023/09/17 05:07:48;;;;;;;4.00;3.70;;;13.20;99.90;;;;;;5063603;28;20780;-80
2023/09/17 05:10:17;;;;;;;5.97;2.67;;;13.30;99.90;;;;;;5063176;28;20456;-79
2023/09/17 05:12:44;;;;;;;3.40;3.10;;;13.30;99.90;;;;;;5061685;28;20476;-80
2023/09/17 05:15:12;;;;;;;3.20;2.30;;;13.40;99.90;;;;;;5064288;28;20573;-79
2023/09/17 05:17:39;;;;;;;3.90;3.60;;;13.40;99.90;;;;;;5065484;28;20824;-82
2023/09/17 05:20:07;;;;;;;3.10;2.90;;;13.30;99.90;;;;;;5063693;28;20510;-80
2023/09/17 05:22:35;;;;;;;3.17;2.60;;;13.30;99.90;;;;;;5064854;28;20980;-79
2023/09/17 05:25:03;;;;;;;4.00;3.60;;;13.40;99.90;;;;;;5066419;28;20445;-80
2023/09/17 05:27:31;;;;;;;5.63;3.30;;;13.50;99.90;;;;;;5065216;28;20531;-80
2023/09/17 05:30:00;;;;;;;3.13;2.83;;;13.50;99.90;;;;;;5063811;28;20461;-80
2023/09/17 05:32:27;;;;;;;4.93;3.07;;;13.60;99.90;;;;;;5072298;28;20471;-80
2023/09/17 05:34:54;;;;;;;2.23;2.03;;;13.70;99.90;;;;;;5064139;28;20545;-79
2023/09/17 05:37:21;;;;;;;4.73;3.23;;;13.80;99.90;;;;;;5057746;28;20464;-79
2023/09/17 05:39:48;;;;;;;2.53;2.30;;;13.90;99.90;;;;;;5064239;28;21179;-80
2023/09/17 05:42:15;;;;;;;4.10;3.70;;;13.90;99.90;;;;;;5064151;28;20529;-78
2023/09/17 05:44:44;;;;;;;4.70;3.73;;;14.10;99.90;;;;;;5066690;28;20451;-79
2023/09/17 05:47:11;;;;;;;3.00;2.80;;;14.20;99.90;;;;;;5056240;28;20541;-77
2023/09/17 05:49:37;;;;;;;2.77;2.57;;;14.50;99.90;;;;;;5064126;28;20544;-78
2023/09/17 05:52:05;;;;;;;2.90;2.57;;;14.50;99.90;;;;;;5053740;28;21240;-83
2023/09/17 05:54:32;;;;;;;4.90;3.27;;;14.60;99.90;;;;;;5063948;28;20489;-83
2023/09/17 05:56:59;;;;;;;2.83;2.63;;;14.50;99.90;;;;;;5055189;28;21007;-86
2023/09/17 05:59:26;;;;;;;2.97;2.53;;;14.40;99.90;;;;;;5055036;28;21179;-84
2023/09/17 06:01:54;;;;;;;3.43;2.80;;;14.40;99.90;;;;;;5054593;28;20466;-77
2023/09/17 06:04:21;;;;;;;2.70;2.50;;;14.40;99.90;;;;;;5061414;28;20474;-81
2023/09/17 06:06:48;;;;;;;3.87;2.90;;;14.50;99.90;;;;;;5053730;28;20452;-81
2023/09/17 06:09:15;;;;;;;3.20;2.97;;;14.60;99.90;;;;;;5059982;28;20465;-81
2023/09/17 06:11:42;;;;;;;8.30;2.80;;;14.90;99.90;;;;;;5066263;28;20523;-78
2023/09/17 06:14:09;;;;;;;5.20;2.70;;;14.90;99.90;;;;;;5065896;28;20527;-81
2023/09/17 06:16:36;;;;;;;3.70;2.90;;;14.90;99.90;;;;;;5062688;28;20942;-80
2023/09/17 06:19:05;;;;;;;2.53;2.20;;;14.80;99.90;;;;;;5070941;28;20814;-78
2023/09/17 06:21:32;;;;;;;2.50;2.30;;;14.90;99.90;;;;;;5055524;28;20948;-81
2023/09/17 06:23:59;;;;;;;2.63;2.43;;;15.00;99.90;;;;;;5066856;28;20447;-81
2023/09/17 06:26:26;;;;;;;4.03;2.63;;;15.30;99.90;;;;;;5053257;28;20465;-81
2023/09/17 06:28:53;;;;;;;3.23;2.93;;;15.40;99.90;;;;;;5049260;28;20459;-80
2023/09/17 06:31:20;;;;;;;2.27;2.07;;;15.50;99.90;;;;;;5067915;28;20470;-79
2023/09/17 06:33:48;;;;;;;2.50;2.30;;;15.50;99.90;;;;;;5067591;28;20451;-81
2023/09/17 06:36:16;;;;;;;2.70;2.20;;;15.50;99.90;;;;;;5067497;28;21370;-80
2023/09/17 06:38:43;;;;;;;2.13;2.03;;;15.50;99.90;;;;;;5063293;28;21037;-81
2023/09/17 06:41:10;;;;;;;2.23;1.70;;;15.50;99.90;;;;;;5059903;28;21123;-83
2023/09/17 06:43:38;;;;;;;2.70;1.83;;;15.50;99.90;;;;;;5067131;28;20455;-79
2023/09/17 06:46:05;;;;;;;4.43;3.20;;;15.60;99.90;;;;;;5072262;28;20489;-79
2023/09/17 06:48:32;;;;;;;1.97;1.80;;;15.70;99.90;;;;;;5056959;28;20803;-79
2023/09/17 06:50:59;;;;;;;2.27;1.50;;;15.80;99.90;;;;;;5063078;28;20887;-80
2023/09/17 06:53:27;;;;;;;4.20;2.60;;;15.90;99.90;;;;;;5065630;28;20864;-80
2023/09/17 06:55:54;;;;;;;2.70;2.50;;;16.10;99.90;;;;;;5068382;28;20852;-80
2023/09/17 06:58:21;;;;;;;1.23;1.10;;;16.20;99.90;;;;;;5066842;28;20535;-80
2023/09/17 07:00:48;;;;;;;2.30;2.10;;;16.30;99.90;;;;;;5065648;28;20448;-80
2023/09/17 07:03:15;;;;;;;1.90;1.80;;;16.50;99.90;;;;;;5069282;28;20465;-81
2023/09/17 07:05:43;;;;;;;1.87;1.77;;;16.50;99.90;;;;;;5060471;28;20541;-80
2023/09/17 07:08:10;;;;;;;2.83;2.40;;;16.60;99.90;;;;;;5066137;28;20491;-80
2023/09/17 07:10:38;;;;;;;2.50;1.77;;;16.70;99.90;;;;;;5063458;28;20460;-80
2023/09/17 07:13:05;;;;;;;2.70;2.50;;;16.70;99.90;;;;;;5068859;28;20510;-82
2023/09/17 07:15:32;;;;;;;1.93;1.70;;;16.80;99.90;;;;;;5052211;28;20484;-82
2023/09/17 07:17:59;;;;;;;2.70;2.13;;;16.70;99.90;;;;;;5060957;28;20460;-81
2023/09/17 07:20:26;;;;;;;1.77;1.67;;;16.80;99.90;;;;;;5067658;28;20444;-81
2023/09/17 07:22:53;;;;;;;1.93;1.83;;;17.00;99.90;;;;;;5074001;28;20468;-80
2023/09/17 07:25:20;;;;;;;2.43;2.23;;;17.10;99.90;;;;;;5063288;28;20459;-82
2023/09/17 07:27:48;;;;;;;1.80;1.70;;;17.30;99.90;;;;;;5064631;28;20468;-80
2023/09/17 07:30:17;;;;;;;3.97;2.13;;;17.40;99.90;;;;;;5056236;28;20476;-81
2023/09/17 07:32:44;;;;;;;5.23;2.47;;;17.50;99.90;;;;;;5052851;28;20467;-82
2023/09/17 07:35:11;;;;;;;2.60;2.40;;;17.60;99.90;;;;;;5062415;28;20555;-80
2023/09/17 07:37:38;;;;;;;1.97;1.87;;;17.50;99.90;;;;;;5069760;28;20509;-81
2023/09/17 07:40:06;;;;;;;2.43;2.07;;;17.70;99.90;;;;;;5070160;28;20530;-80
2023/09/17 07:42:33;;;;;;;5.13;2.87;;;17.90;99.90;;;;;;5068608;28;20550;-82
2023/09/17 07:45:02;;;;;;;4.03;2.60;;;17.90;99.90;;;;;;5083626;28;20444;-81
2023/09/17 07:47:29;;;;;;;2.50;2.13;;;18.20;99.90;;;;;;5072691;28;20487;-81
2023/09/17 07:49:56;;;;;;;4.07;3.77;;;18.20;99.90;;;;;;5065183;28;20573;-81
2023/09/17 07:52:23;;;;;;;3.30;3.10;;;18.30;99.90;;;;;;5063541;28;20866;-81
2023/09/17 07:54:50;;;;;;;2.47;2.27;;;18.40;99.90;;;;;;5069029;28;20515;-81
2023/09/17 07:57:17;;;;;;;2.53;1.90;;;18.30;99.90;;;;;;5067188;28;20476;-81
2023/09/17 07:59:44;;;;;;;3.47;3.27;;;18.30;99.90;;;;;;5067391;28;20455;-82
2023/09/17 08:02:12;;;;;;;2.30;2.10;;;18.50;99.90;;;;;;5067191;28;20633;-82
2023/09/17 08:04:39;;;;;;;3.97;3.73;;;18.80;99.90;;;;;;5065571;28;20519;-81
2023/09/17 08:07:06;;;;;;;2.93;2.73;;;18.80;99.90;;;;;;5074699;28;20519;-82
2023/09/17 08:09:41;;;;;;;2.77;2.57;;;18.80;99.90;;;;;;5070256;28;20545;-86
2023/09/17 08:12:09;;;;;;;3.57;3.27;;;19.00;99.90;;;;;;5066840;28;20476;-83
2023/09/17 08:14:37;;;;;;;2.57;2.37;;;19.30;99.90;;;;;;5068474;28;20594;-83
2023/09/17 08:17:04;;;;;;;3.73;3.00;;;19.30;99.90;;;;;;5066536;28;20456;-84
2023/09/17 08:19:33;;;;;;;2.77;2.57;;;19.30;99.90;;;;;;5065724;28;20521;-84
2023/09/17 08:22:00;;;;;;;4.10;3.70;;;19.40;99.90;;;;;;5058794;28;20444;-84
2023/09/17 08:24:27;;;;;;;4.50;4.10;;;19.50;99.90;;;;;;5072094;28;20454;-84
2023/09/17 08:26:54;;;;;;;4.10;3.80;;;19.60;99.90;;;;;;5065895;28;20467;-84
2023/09/17 08:29:21;;;;;;;5.00;4.50;;;19.60;99.90;;;;;;5063755;28;20462;-84
2023/09/17 08:31:48;;;;;;;4.57;4.20;;;19.80;99.90;;;;;;5053584;28;20468;-84
2023/09/17 08:34:15;;;;;;;4.40;4.00;;;19.90;99.90;;;;;;5061750;28;20524;-85
2023/09/17 08:36:45;;;;;;;3.53;2.63;;;20.00;99.90;;;;;;5063806;28;20467;-84
2023/09/17 08:39:12;;;;;;;4.13;2.83;;;19.90;99.90;;;;;;5064640;28;20466;-84
2023/09/17 08:41:41;;;;;;;3.07;2.77;;;19.90;99.90;;;;;;5065414;28;20508;-84
2023/09/17 08:44:09;;;;;;;3.63;3.33;;;20.00;99.90;;;;;;5064519;28;20483;-84
2023/09/17 08:46:37;;;;;;;3.30;3.10;;;20.20;99.90;;;;;;5059476;28;20503;-84
2023/09/17 08:49:04;;;;;;;2.70;2.50;;;20.50;99.90;;;;;;5055482;28;20526;-84
2023/09/17 08:51:37;;;;;;;11.10;3.03;;;20.40;99.90;;;;;;5060235;28;20456;-85
2023/09/17 08:54:11;;;;;;;2.00;1.90;;;20.70;99.90;;;;;;5062800;28;20467;-84
2023/09/17 08:56:42;;;;;;;2.60;2.40;;;20.80;99.90;;;;;;5075698;28;20495;-83
2023/09/17 08:59:11;;;;;;;2.33;2.13;;;20.90;99.90;;;;;;5056891;28;20463;-81
2023/09/17 09:01:43;;;;;;;3.10;2.67;;;21.00;99.90;;;;;;5060908;28;20494;-83
2023/09/17 09:04:10;;;;;;;5.33;2.70;;;21.30;99.90;;;;;;5060131;28;20455;-82
2023/09/17 09:06:39;;;;;;;4.63;3.20;;;21.00;99.90;;;;;;5067195;28;20459;-83
2023/09/17 09:09:09;;;;;;;2.50;2.30;;;21.00;99.90;;;;;;5084466;28;20482;-83
2023/09/17 09:11:36;;;;;;;2.90;2.00;;;21.10;99.90;;;;;;5074953;28;20464;-82
2023/09/17 09:14:05;;;;;;;2.70;2.50;;;21.10;99.90;;;;;;5075286;28;20467;-83
2023/09/17 09:16:34;;;;;;;2.70;2.50;;;21.10;99.90;;;;;;5066059;28;20529;-84
2023/09/17 09:19:01;;;;;;;2.40;2.30;;;21.30;99.90;;;;;;5066142;28;20806;-82
2023/09/17 09:21:29;;;;;;;2.93;2.63;;;21.40;99.90;;;;;;5060786;28;20464;-83
2023/09/17 09:23:57;;;;;;;3.10;2.00;;;21.50;99.90;;;;;;5066271;28;20451;-84
2023/09/17 09:26:34;;;;;;;3.07;2.80;;;21.50;99.90;;;;;;5065030;28;22359;-83
2023/09/17 09:29:01;;;;;;;3.93;1.93;;;21.40;99.90;;;;;;5071665;28;20483;-84
2023/09/17 09:31:29;;;;;;;2.07;1.87;;;21.50;99.90;;;;;;5055639;28;21029;-86
2023/09/17 09:33:58;;;;;;;2.03;1.83;;;21.80;99.90;;;;;;5057593;28;20448;-84
2023/09/17 09:36:27;;;;;;;2.57;2.37;;;21.90;99.90;;;;;;5066197;28;20480;-83
2023/09/17 09:38:55;;;;;;;2.97;2.20;;;21.80;99.90;;;;;;5053812;28;20543;-82
2023/09/17 09:41:22;;;;;;;2.93;2.73;;;21.80;99.90;;;;;;5062074;28;20525;-82
2023/09/17 09:43:51;;;;;;;2.10;2.00;;;21.80;99.90;;;;;;5061559;28;20463;-83
2023/09/17 09:46:18;;;;;;;3.03;2.83;;;21.60;99.90;;;;;;5062902;28;20448;-83
2023/09/17 09:48:46;;;;;;;2.23;2.03;;;21.70;99.90;;;;;;5061486;28;21206;-83
2023/09/17 09:51:17;;;;;;;2.50;2.23;;;21.90;99.90;;;;;;5065228;28;20625;-82
2023/09/17 09:53:44;;;;;;;1.60;1.50;;;22.00;99.90;;;;;;5064871;28;20467;-82
2023/09/17 09:56:11;;;;;;;3.27;2.17;;;22.00;99.90;;;;;;5065829;28;20529;-83
2023/09/17 09:58:40;;;;;;;2.33;2.13;;;22.00;99.90;;;;;;5064926;28;20535;-84
2023/09/17 10:01:08;;;;;;;2.70;2.40;;;21.90;99.90;;;;;;5059984;28;20630;-83
2023/09/17 10:03:35;;;;;;;1.73;1.63;;;21.90;99.90;;;;;;5065125;28;20456;-84
2023/09/17 10:06:07;;;;;;;2.00;1.90;;;21.90;99.90;;;;;;5060856;28;20538;-82
2023/09/17 10:08:35;;;;;;;2.90;2.07;;;22.20;99.90;;;;;;5056267;28;21627;-82
2023/09/17 10:11:03;;;;;;;2.33;2.13;;;22.30;99.90;;;;;;5068038;28;20444;-83
2023/09/17 10:13:32;;;;;;;2.27;2.17;;;22.30;99.90;;;;;;5062536;28;20854;-83
2023/09/17 10:15:59;;;;;;;1.70;1.60;;;22.10;99.90;;;;;;5058485;28;20491;-84
2023/09/17 10:18:29;;;;;;;4.00;3.70;;;22.10;99.90;;;;;;5068794;28;20497;-83
2023/09/17 10:20:57;;;;;;;3.40;2.10;;;22.10;99.90;;;;;;5068221;28;20497;-84
2023/09/17 10:23:26;;;;;;;2.40;2.20;;;22.40;99.90;;;;;;5069937;28;20501;-84
2023/09/17 10:25:56;;;;;;;2.50;2.30;;;22.50;99.90;;;;;;5068186;28;20447;-84
2023/09/17 10:28:23;;;;;;;5.80;2.43;;;22.40;99.90;;;;;;5067419;28;20452;-85
2023/09/17 10:30:51;;;;;;;2.03;1.83;;;22.60;99.90;;;;;;5070493;28;20440;-83
2023/09/17 10:33:20;;;;;;;3.53;3.23;;;22.60;99.90;;;;;;5092220;28;20444;-82
2023/09/17 10:35:49;;;;;;;1.83;1.73;;;22.50;99.90;;;;;;5081183;28;20482;-83
2023/09/17 10:38:19;;;;;;;1.60;1.50;;;22.60;99.90;;;;;;5076906;28;20447;-81
2023/09/17 10:40:46;;;;;;;1.63;1.53;;;22.70;99.90;;;;;;5069048;28;20521;-83
2023/09/17 10:43:16;;;;;;;4.40;2.30;;;22.60;99.90;;;;;;5069856;28;20529;-81
2023/09/17 10:45:44;;;;;;;2.63;2.43;;;22.80;99.90;;;;;;5065757;28;20502;-82
2023/09/17 10:48:12;;;;;;;2.10;1.87;;;22.90;99.90;;;;;;5067911;28;20866;-82
2023/09/17 10:50:42;;;;;;;2.30;2.20;;;22.80;99.90;;;;;;5067403;28;20503;-83
2023/09/17 10:53:10;;;;;;;3.00;2.80;;;22.90;99.90;;;;;;5067388;28;20514;-82
2023/09/17 10:55:42;;;;;;;2.30;2.13;;;23.00;99.90;;;;;;5065118;28;20487;-82
2023/09/17 10:58:16;;;;;;;3.63;2.33;;;22.90;99.90;;;;;;5068889;28;20439;-81
2023/09/17 11:00:45;;;;;;;2.10;1.67;;;23.10;99.90;;;;;;5064983;28;20508;-82
2023/09/17 11:03:18;;;;;;;2.73;2.53;;;23.00;99.90;;;;;;5069600;28;20451;-83
2023/09/17 11:05:45;;;;;;;2.77;2.57;;;23.10;99.90;;;;;;5057054;28;21190;-82
2023/09/17 11:08:14;;;;;;;1.80;1.70;;;23.30;99.90;;;;;;5067241;28;20552;-84
2023/09/17 11:10:42;;;;;;;2.10;1.90;;;23.40;99.90;;;;;;5065094;28;20517;-83
2023/09/17 11:13:12;;;;;;;1.93;1.83;;;23.50;99.90;;;;;;5067475;28;20535;-80
2023/09/17 11:15:40;;;;;;;7.40;1.70;;;23.70;99.90;;;;;;5063533;28;20516;-79
2023/09/17 11:18:08;;;;;;;2.77;2.60;;;23.70;99.90;;;;;;5066143;28;20993;-79
2023/09/17 11:20:38;;;;;;;2.67;2.47;;;23.60;99.90;;;;;;5062950;28;20487;-80
2023/09/17 11:23:05;;;;;;;1.50;1.40;;;23.70;99.90;;;;;;5064001;28;20448;-82
2023/09/17 11:25:39;;;;;;;2.40;2.30;;;23.80;99.90;;;;;;5066338;28;20978;-79
2023/09/17 11:28:11;;;;;;;2.53;2.33;;;23.70;99.90;;;;;;5065735;28;20444;-78
2023/09/17 11:30:57;;;;;;;1.80;1.70;;;23.90;99.90;;;;;;5063197;28;20521;-81
2023/09/17 11:33:26;;;;;;;2.40;2.20;;;23.90;99.90;;;;;;5055704;28;20531;-82
2023/09/17 11:35:54;;;;;;;2.57;2.37;;;24.10;99.90;;;;;;5063030;28;20566;-83
2023/09/17 11:38:24;;;;;;;2.67;2.50;;;24.30;99.90;;;;;;5060133;28;20453;-80
2023/09/17 11:41:06;;;;;;;2.03;1.93;;;24.40;99.90;;;;;;5066341;28;20535;-81
2023/09/17 11:43:35;;;;;;;2.60;2.40;;;24.50;99.90;;;;;;5066414;28;20440;-80
2023/09/17 11:46:08;;;;;;;1.83;1.63;;;24.40;99.90;;;;;;5065843;28;21008;-80
2023/09/17 11:48:36;;;;;;;5.33;2.40;;;24.40;99.90;;;;;;5055211;28;20879;-81
2023/09/17 11:51:24;;;;;;;2.43;2.23;;;24.40;99.90;;;;;;5065650;28;20591;-80
2023/09/17 11:54:01;;;;;;;2.43;2.13;;;24.50;99.90;;;;;;5062522;28;20443;-80
2023/09/17 11:56:32;;;;;;;1.57;1.47;;;24.40;99.90;;;;;;5063930;28;20498;-82
2023/09/17 11:59:00;;;;;;;1.83;1.73;;;24.50;99.90;;;;;;5075865;28;20460;-78
2023/09/17 12:01:29;;;;;;;2.47;2.27;;;24.40;99.90;;;;;;5066609;28;20486;-79
2023/09/17 12:03:57;;;;;;;1.60;1.50;;;24.30;99.90;;;;;;5072882;28;20861;-81
2023/09/17 12:06:25;;;;;;;2.60;2.40;;;24.40;99.90;;;;;;5061727;28;20464;-84
2023/09/17 12:08:52;;;;;;;1.90;1.70;;;24.40;99.90;;;;;;5063104;28;20444;-79
2023/09/17 12:11:22;;;;;;;2.83;2.63;;;24.50;99.90;;;;;;5056055;28;20463;-82
2023/09/17 12:13:54;;;;;;;1.90;1.80;;;24.60;99.90;;;;;;5065828;28;20513;-80
2023/09/17 12:16:24;;;;;;;2.23;2.00;;;24.30;99.90;;;;;;5061385;28;20563;-80
2023/09/17 12:18:52;;;;;;;2.40;2.20;;;24.60;99.90;;;;;;5060349;28;20983;-82
2023/09/17 12:21:20;;;;;;;1.50;1.40;;;24.60;99.90;;;;;;5063182;28;20463;-83
2023/09/17 12:23:56;;;;;;;2.00;1.70;;;24.60;99.90;;;;;;5058742;28;20436;-82
2023/09/17 12:26:30;;;;;;;2.40;2.20;;;24.60;99.90;;;;;;5062923;28;20447;-80
2023/09/17 12:28:59;;;;;;;2.00;1.90;;;24.60;99.90;;;;;;5056873;28;20521;-84
2023/09/17 12:31:27;;;;;;;1.63;1.53;;;24.50;99.90;;;;;;5053802;28;21059;-82
2023/09/17 12:33:54;;;;;;;1.97;1.87;;;24.60;99.90;;;;;;5065522;28;20546;-84
2023/09/17 12:36:21;;;;;;;1.90;1.80;;;24.50;99.90;;;;;;5059158;28;20529;-85
2023/09/17 12:38:48;;;;;;;1.83;1.47;;;24.40;99.90;;;;;;5059239;28;20466;-85
2023/09/17 12:41:25;;;;;;;1.60;1.50;;;24.50;99.90;;;;;;5065433;28;20448;-89
2023/09/17 12:43:59;;;;;;;2.07;1.87;;;24.60;99.90;;;;;;5070919;28;20440;-85
2023/09/17 12:46:29;;;;;;;8.80;2.30;;;24.70;99.90;;;;;;5070760;28;20811;-82
2023/09/17 12:48:57;;;;;;;1.23;1.13;;;24.80;99.90;;;;;;5064190;28;20499;-85
2023/09/17 12:51:23;;;;;;;2.90;1.87;;;24.90;99.40;;;;;;5064304;28;20564;-85
2023/09/17 12:53:50;;;;;;;1.53;1.30;;;25.20;99.30;;;;;;5062561;28;20456;-84